Time;durP1;ratioP1;P1;durP2;ratioP2;P2;SDS_P1;SDS_P2;PMS_P1;PMS_P2;Temp;Humidity;BMP_temperature;BMP_pressure;BME280_temperature;BME280_humidity;BME280_pressure;Samples;Min_cycle;Max_cycle;Signal;HPM_P1;HPM_P2
2022/02/20 00:02:19;;;;;;;11.97;6.00;;;;;;;1.42;55.59;98704.50;2153615;83;20945;-83
2022/02/20 00:05:19;;;;;;;16.97;5.53;;;;;;;1.41;55.86;98708.77;2154553;83;20959;-82
2022/02/20 00:08:20;;;;;;;15.30;5.30;;;;;;;1.40;55.95;98699.69;2153485;83;20959;-84
2022/02/20 00:11:20;;;;;;;15.97;6.17;;;;;;;1.41;56.01;98696.31;2154714;83;20955;-83
2022/02/20 00:14:21;;;;;;;15.37;6.10;;;;;;;1.41;56.19;98693.73;2154695;83;21314;-82
2022/02/20 00:17:21;;;;;;;16.60;6.13;;;;;;;1.41;56.26;98697.19;2154627;83;21358;-83
2022/02/20 00:20:24;;;;;;;14.50;5.53;;;;;;;1.43;56.32;98694.69;2154666;83;20975;-81
2022/02/20 00:23:24;;;;;;;14.00;5.93;;;;;;;1.44;56.20;98694.75;2154638;82;21066;-84
2022/02/20 00:26:25;;;;;;;15.50;6.47;;;;;;;1.46;56.18;98694.42;2154755;83;21311;-83
2022/02/20 00:29:25;;;;;;;15.93;7.20;;;;;;;1.49;56.06;98691.98;2154057;83;20960;-83
2022/02/20 00:32:26;;;;;;;19.63;7.60;;;;;;;1.54;55.99;98686.64;2153865;83;20971;-83
2022/02/20 00:35:27;;;;;;;20.50;8.33;;;;;;;1.60;55.92;98677.02;2154877;83;20955;-84
2022/02/20 00:38:28;;;;;;;24.37;9.27;;;;;;;1.67;55.73;98684.20;2154780;81;21007;-84
2022/02/20 00:41:28;;;;;;;25.40;9.63;;;;;;;1.74;55.78;98681.52;2154903;83;20971;-84
2022/02/20 00:44:29;;;;;;;19.53;8.43;;;;;;;1.81;55.55;98677.99;2154747;83;20975;-83
2022/02/20 00:47:29;;;;;;;25.13;9.83;;;;;;;1.89;55.34;98671.89;2154622;83;20986;-82
2022/02/20 00:50:30;;;;;;;27.37;9.90;;;;;;;1.96;55.12;98672.63;2154648;83;20952;-82
2022/02/20 00:53:31;;;;;;;22.90;9.73;;;;;;;2.00;54.98;98669.36;2154662;83;20888;-84
2022/02/20 00:56:31;;;;;;;22.30;9.87;;;;;;;2.03;54.91;98655.33;2153341;83;20943;-82
2022/02/20 00:59:32;;;;;;;28.00;10.47;;;;;;;2.09;54.87;98657.28;2169908;81;20967;-81
2022/02/20 01:02:32;;;;;;;22.60;9.97;;;;;;;2.09;54.95;98649.56;2135591;83;21393;-83
2022/02/20 01:05:33;;;;;;;31.17;12.97;;;;;;;2.08;54.95;98646.52;2135911;83;21325;-82
2022/02/20 01:08:33;;;;;;;31.67;11.27;;;;;;;2.04;55.05;98643.34;2089835;85;21018;-82
2022/02/20 01:11:34;;;;;;;28.97;13.07;;;;;;;1.99;55.26;98643.14;2135704;83;20961;-83
2022/02/20 01:14:34;;;;;;;27.50;11.80;;;;;;;1.94;55.29;98641.19;2135836;83;20918;-83
2022/02/20 01:17:35;;;;;;;29.70;12.50;;;;;;;1.89;55.49;98629.42;2089569;85;21010;-82
2022/02/20 01:20:36;;;;;;;32.80;13.10;;;;;;;1.84;55.56;98625.77;2135669;83;21032;-81
2022/02/20 01:23:36;;;;;;;36.90;14.70;;;;;;;1.80;55.56;98625.17;2135825;83;21052;-83
2022/02/20 01:26:37;;;;;;;37.50;14.27;;;;;;;1.74;55.74;98616.78;2090153;85;20961;-83
2022/02/20 01:29:38;;;;;;;39.93;14.07;;;;;;;1.71;55.77;98619.59;2135478;83;21056;-83
2022/02/20 01:32:38;;;;;;;39.13;15.13;;;;;;;1.69;55.74;98618.25;2135309;83;21004;-82
2022/02/20 01:35:40;;;;;;;39.00;15.30;;;;;;;1.68;55.79;98610.05;2089537;85;20938;-80
2022/02/20 01:38:40;;;;;;;36.53;14.00;;;;;;;1.67;55.84;98603.15;2135047;83;20977;-83
2022/02/20 01:41:41;;;;;;;35.13;14.43;;;;;;;1.68;55.98;98600.17;2135832;83;20989;-83
2022/02/20 01:44:41;;;;;;;37.00;14.47;;;;;;;1.70;55.96;98587.84;2090158;85;20998;-82
2022/02/20 01:47:42;;;;;;;32.97;14.93;;;;;;;1.70;56.09;98586.55;2135927;83;20942;-83
2022/02/20 01:50:42;;;;;;;36.00;15.80;;;;;;;1.77;55.82;98572.28;2135917;83;20962;-83
2022/02/20 01:53:43;;;;;;;34.27;14.33;;;;;;;1.83;55.66;98570.84;2090164;85;20968;-83
2022/02/20 01:56:43;;;;;;;36.67;15.53;;;;;;;1.88;55.58;98565.48;2136147;83;21317;-82
2022/02/20 01:59:44;;;;;;;37.73;15.57;;;;;;;1.91;55.66;98559.17;2111230;83;21010;-84
2022/02/20 02:02:44;;;;;;;35.73;15.67;;;;;;;1.93;55.74;98553.20;2132249;83;21019;-83
2022/02/20 02:05:45;;;;;;;37.53;15.47;;;;;;;1.94;55.74;98552.39;2087845;85;20943;-81
2022/02/20 02:08:46;;;;;;;42.57;16.67;;;;;;;1.94;55.59;98553.67;2148074;82;20990;-83
2022/02/20 02:11:49;;;;;;;37.20;15.47;;;;;;;1.94;55.79;98554.55;2087795;85;20994;-84
2022/02/20 02:14:48;;;;;;;39.53;16.17;;;;;;;1.94;55.85;98544.66;2148980;82;20970;-84
2022/02/20 02:17:49;;;;;;;41.33;16.13;;;;;;;1.91;55.92;98545.02;2087187;85;21045;-83
2022/02/20 02:20:49;;;;;;;35.67;16.10;;;;;;;1.91;55.76;98538.58;2148530;82;20959;-83
2022/02/20 02:23:50;;;;;;;33.60;14.70;;;;;;;1.92;55.69;98527.88;2087359;85;20988;-83
2022/02/20 02:26:50;;;;;;;35.43;14.83;;;;;;;1.93;55.60;98520.63;2148806;82;20936;-82
2022/02/20 02:29:51;;;;;;;38.77;16.17;;;;;;;1.93;55.45;98510.33;2087012;85;21414;-83
2022/02/20 02:32:51;;;;;;;39.93;15.90;;;;;;;1.96;55.53;98508.28;2149041;82;21315;-83
2022/02/20 02:35:52;;;;;;;37.83;15.67;;;;;;;1.94;55.46;98501.78;2148677;83;21363;-83
2022/02/20 02:38:52;;;;;;;44.07;16.67;;;;;;;1.95;55.33;98502.26;2148769;83;20975;-82
2022/02/20 02:41:53;;;;;;;37.97;16.13;;;;;;;1.96;55.47;98497.58;2148634;83;20932;-83
2022/02/20 02:44:54;;;;;;;44.47;16.13;;;;;;;1.98;55.36;98497.64;2148373;83;20968;-83
2022/02/20 02:47:54;;;;;;;41.23;15.37;;;;;;;1.99;55.21;98504.55;2148597;83;20995;-83
2022/02/20 02:50:54;;;;;;;42.13;15.73;;;;;;;1.97;55.28;98495.88;2148487;83;20951;-82
2022/02/20 02:53:55;;;;;;;36.23;15.33;;;;;;;1.96;55.43;98496.29;2087307;85;21029;-83
2022/02/20 02:56:56;;;;;;;46.43;17.13;;;;;;;1.95;55.33;98491.96;2148439;82;21422;-82
2022/02/20 02:59:57;;;;;;;38.17;15.80;;;;;;;1.94;55.30;98488.03;2151219;81;21054;-83
2022/02/20 03:02:57;;;;;;;35.73;15.33;;;;;;;1.93;55.33;98476.86;2154084;83;20959;-82
2022/02/20 03:05:59;;;;;;;46.77;16.00;;;;;;;1.94;55.43;98468.32;2092582;85;21350;-83
2022/02/20 03:09:00;;;;;;;37.40;15.30;;;;;;;1.94;55.56;98467.45;2154016;82;20951;-84
2022/02/20 03:12:01;;;;;;;38.00;14.60;;;;;;;1.94;55.57;98455.86;2154154;83;21003;-82
2022/02/20 03:15:01;;;;;;;42.87;16.53;;;;;;;1.92;55.64;98453.23;2153790;83;21350;-83
2022/02/20 03:18:02;;;;;;;40.70;16.53;;;;;;;1.86;55.77;98447.43;2091934;85;20994;-81
2022/02/20 03:21:02;;;;;;;40.90;15.97;;;;;;;1.84;55.94;98453.34;2153536;82;21015;-82
2022/02/20 03:24:03;;;;;;;39.40;14.30;;;;;;;1.82;55.89;98451.98;2091723;85;21401;-82
2022/02/20 03:27:03;;;;;;;37.90;15.33;;;;;;;1.77;55.85;98452.22;2154182;82;20916;-82
2022/02/20 03:30:04;;;;;;;29.97;13.07;;;;;;;1.75;55.99;98443.97;2092588;85;20947;-82
2022/02/20 03:33:04;;;;;;;33.17;13.27;;;;;;;1.75;55.96;98443.97;2154290;82;20968;-82
2022/02/20 03:36:05;;;;;;;31.97;13.03;;;;;;;1.73;55.78;98440.01;2092745;85;20911;-82
2022/02/20 03:39:05;;;;;;;33.70;13.10;;;;;;;1.76;55.78;98436.72;2154483;82;20943;-83
2022/02/20 03:42:06;;;;;;;29.57;12.03;;;;;;;1.77;55.63;98423.91;2092649;85;20989;-84
2022/02/20 03:45:07;;;;;;;29.03;12.43;;;;;;;1.80;55.61;98427.02;2154937;82;21027;-83
2022/02/20 03:48:07;;;;;;;32.00;12.77;;;;;;;1.82;55.63;98413.80;2093490;85;20919;-83
2022/02/20 03:51:08;;;;;;;34.30;12.77;;;;;;;1.83;55.72;98409.99;2154800;82;20902;-82
2022/02/20 03:54:09;;;;;;;35.07;13.20;;;;;;;1.83;55.83;98407.42;2093130;85;20994;-84
2022/02/20 03:57:10;;;;;;;28.80;12.83;;;;;;;1.81;55.96;98406.48;2154622;82;21051;-83
2022/02/20 04:00:10;;;;;;;35.13;13.43;;;;;;;1.77;56.16;98396.89;2090665;84;20999;-82
2022/02/20 04:03:11;;;;;;;33.03;13.10;;;;;;;1.75;56.31;98387.35;2148633;82;20975;-82
2022/02/20 04:09:14;;;;;;;34.40;13.03;;;;;;;1.72;56.60;98376.91;2131913;83;21038;-82
2022/02/20 04:12:15;;;;;;;30.30;12.73;;;;;;;1.73;56.31;98374.80;2148546;83;21010;-82
2022/02/20 04:15:16;;;;;;;28.23;12.03;;;;;;;1.74;56.24;98366.30;2148070;83;21006;-81
2022/02/20 04:18:16;;;;;;;28.97;11.57;;;;;;;1.75;56.24;98370.63;2148126;83;20955;-82
2022/02/20 04:21:18;;;;;;;27.17;11.53;;;;;;;1.75;56.35;98368.05;2148801;83;21047;-83
2022/02/20 04:24:18;;;;;;;35.87;12.23;;;;;;;1.75;56.37;98367.64;2148582;83;21003;-84
2022/02/20 04:27:19;;;;;;;35.97;12.30;;;;;;;1.74;56.32;98363.73;2148812;83;21339;-82
2022/02/20 04:30:20;;;;;;;27.93;11.43;;;;;;;1.74;56.33;98359.45;2087821;84;21338;-81
2022/02/20 04:33:20;;;;;;;29.83;11.17;;;;;;;1.75;56.25;98352.20;2148918;82;20948;-82
2022/02/20 04:36:21;;;;;;;27.50;12.17;;;;;;;1.77;56.18;98350.98;2087820;85;20970;-81
2022/02/20 04:39:21;;;;;;;27.60;11.83;;;;;;;1.77;56.31;98342.85;2147904;82;20963;-82
2022/02/20 04:42:22;;;;;;;27.00;11.37;;;;;;;1.80;56.26;98333.95;2147743;83;20955;-82
2022/02/20 04:45:22;;;;;;;30.83;11.27;;;;;;;1.82;56.29;98319.86;2148860;83;20984;-81
2022/02/20 04:48:23;;;;;;;25.17;9.40;;;;;;;1.80;56.35;98309.52;2087715;85;20956;-81
2022/02/20 04:51:23;;;;;;;22.83;10.53;;;;;;;1.81;56.23;98311.67;2087699;84;20970;-82
2022/02/20 04:54:24;;;;;;;26.87;10.23;;;;;;;1.81;56.45;98305.24;2148626;82;20964;-83
2022/02/20 04:57:24;;;;;;;23.90;10.27;;;;;;;1.81;56.53;98289.80;2087663;85;21011;-81
2022/02/20 05:00:25;;;;;;;27.83;10.47;;;;;;;1.80;56.41;98290.21;2150594;81;20988;-81
2022/02/20 05:03:26;;;;;;;20.53;9.63;;;;;;;1.78;56.40;98278.98;2153347;83;21002;-81
2022/02/20 05:06:27;;;;;;;25.30;10.00;;;;;;;1.78;56.43;98273.84;2153700;83;21350;-81
2022/02/20 05:09:28;;;;;;;22.40;9.47;;;;;;;1.76;56.38;98269.05;2154612;82;21048;-82
2022/02/20 05:12:28;;;;;;;19.27;8.43;;;;;;;1.75;56.52;98263.44;2154582;83;20928;-82
2022/02/20 05:15:29;;;;;;;20.17;8.07;;;;;;;1.75;56.49;98260.86;2154558;83;21326;-81
2022/02/20 05:18:29;;;;;;;21.80;8.03;;;;;;;1.76;56.36;98266.88;2154602;83;21335;-81
2022/02/20 05:21:30;;;;;;;15.73;7.93;;;;;;;1.75;56.37;98261.27;2153964;83;21386;-82
2022/02/20 05:24:30;;;;;;;15.90;7.30;;;;;;;1.77;56.34;98265.66;2154433;83;20979;-82
2022/02/20 05:27:31;;;;;;;21.00;7.97;;;;;;;1.83;56.22;98258.56;2154714;83;20920;-82
2022/02/20 05:30:31;;;;;;;23.43;8.50;;;;;;;1.90;55.86;98257.97;2154413;83;20950;-81
2022/02/20 05:33:32;;;;;;;14.50;7.03;;;;;;;1.98;55.57;98250.52;2154401;83;20951;-81
2022/02/20 05:36:32;;;;;;;17.70;8.40;;;;;;;2.03;55.60;98242.14;2154648;83;21272;-83
2022/02/20 05:39:33;;;;;;;20.33;8.13;;;;;;;3.38;86.14;98222.97;2154784;83;21307;-84
2022/02/20 05:42:34;;;;;;;15.50;7.20;;;;;;;8.50;62.46;98203.24;2154505;83;20991;-84
2022/02/20 05:45:34;;;;;;;15.90;6.40;;;;;;;9.98;49.93;98199.54;2155540;83;20983;-84
2022/02/20 05:48:36;;;;;;;18.00;6.60;;;;;;;8.31;46.70;98189.16;2154908;83;20979;-85
2022/02/20 05:51:37;;;;;;;12.83;5.77;;;;;;;6.80;46.90;98190.53;2153857;83;21031;-82
2022/02/20 05:54:38;;;;;;;26.90;6.27;;;;;;;5.74;47.76;98193.73;2154246;83;21007;-84
2022/02/20 05:57:38;;;;;;;14.63;5.80;;;;;;;5.08;48.77;98187.94;2153564;83;20943;-80
2022/02/20 06:00:39;;;;;;;14.07;6.40;;;;;;;4.63;49.37;98191.60;2154326;81;20998;-79
2022/02/20 06:03:39;;;;;;;10.20;5.40;;;;;;;4.28;49.69;98186.39;2155242;83;20967;-80
2022/02/20 06:06:40;;;;;;;15.77;6.37;;;;;;;3.99;50.28;98183.45;2155078;83;20951;-80
2022/02/20 06:09:40;;;;;;;11.40;6.33;;;;;;;3.78;50.89;98194.06;2154715;83;20919;-80
2022/02/20 06:12:41;;;;;;;14.00;6.03;;;;;;;3.65;51.17;98182.52;2153627;83;21056;-81
2022/02/20 06:15:41;;;;;;;11.23;5.17;;;;;;;3.58;51.43;98179.31;2154535;83;20940;-80
2022/02/20 06:18:42;;;;;;;12.87;5.67;;;;;;;3.48;51.66;98180.75;2154158;83;20935;-78
2022/02/20 06:21:42;;;;;;;13.60;5.40;;;;;;;3.40;51.79;98183.91;2153431;83;21354;-78
2022/02/20 06:24:43;;;;;;;15.83;5.60;;;;;;;3.34;51.90;98182.44;2153330;83;21453;-79
2022/02/20 06:27:43;;;;;;;11.10;5.40;;;;;;;3.27;52.09;98184.38;2154873;83;20932;-78
2022/02/20 06:30:44;;;;;;;16.67;6.63;;;;;;;3.22;52.25;98170.47;2154444;83;20988;-78
2022/02/20 06:33:47;;;;;;;15.57;6.90;;;;;;;3.16;52.40;98172.03;2154669;83;20943;-78
2022/02/20 06:36:47;;;;;;;15.33;7.40;;;;;;;3.13;52.53;98164.63;2154874;83;21047;-80
2022/02/20 06:39:47;;;;;;;12.17;7.10;;;;;;;3.08;52.71;98164.48;2154776;83;21342;-78
2022/02/20 06:42:48;;;;;;;13.73;7.20;;;;;;;3.03;52.68;98167.34;2154575;83;21075;-78
2022/02/20 06:45:48;;;;;;;16.57;6.30;;;;;;;3.00;52.80;98163.38;2154717;83;20947;-79
2022/02/20 06:48:49;;;;;;;13.77;6.03;;;;;;;3.03;52.94;98156.15;2155154;83;20966;-79
2022/02/20 06:51:49;;;;;;;16.50;8.07;;;;;;;3.13;52.87;98155.18;2154458;83;20966;-78
2022/02/20 06:54:50;;;;;;;23.77;9.03;;;;;;;3.24;52.76;98148.17;2154449;83;20928;-77
2022/02/20 06:57:54;;;;;;;15.90;7.20;;;;;;;3.38;52.73;98154.19;2154668;83;20944;-79
2022/02/20 07:00:53;;;;;;;11.83;6.07;;;;;;;3.61;52.29;98151.01;2154336;81;21040;-79
2022/02/20 07:03:53;;;;;;;15.13;6.13;;;;;;;3.84;51.93;98153.80;2154636;83;21362;-78
2022/02/20 07:06:54;;;;;;;13.37;5.97;;;;;;;3.93;51.78;98154.47;2153655;83;21346;-78
2022/02/20 07:09:55;;;;;;;9.83;4.60;;;;;;;4.01;51.23;98159.84;2154085;83;21016;-78
2022/02/20 07:12:56;;;;;;;11.00;4.60;;;;;;;4.20;51.11;98150.86;2154305;83;21441;-79
2022/02/20 07:15:57;;;;;;;10.67;4.47;;;;;;;4.55;50.87;98149.19;2153370;83;21292;-80
2022/02/20 07:18:58;;;;;;;13.07;5.30;;;;;;;4.95;50.58;98136.77;2153408;83;21361;-78
2022/02/20 07:21:59;;;;;;;8.13;3.93;;;;;;;5.30;49.85;98138.86;2153618;83;21046;-79
2022/02/20 07:24:59;;;;;;;13.40;4.20;;;;;;;5.28;49.49;98137.96;2153302;83;21592;-79
2022/02/20 07:28:00;;;;;;;10.33;4.93;;;;;;;5.21;49.85;98136.08;2153081;83;21280;-78
2022/02/20 07:31:00;;;;;;;7.50;3.80;;;;;;;5.12;50.20;98153.12;2153646;83;20943;-79
2022/02/20 07:34:01;;;;;;;8.47;3.77;;;;;;;5.21;50.55;98142.55;2153256;83;20916;-79
2022/02/20 07:37:01;;;;;;;7.27;3.13;;;;;;;5.26;50.96;98149.57;2153509;83;20944;-79
2022/02/20 07:40:02;;;;;;;11.67;3.50;;;;;;;5.21;51.20;98145.14;2154031;83;20932;-79
2022/02/20 07:43:02;;;;;;;8.03;3.10;;;;;;;5.18;51.58;98147.63;2153339;83;21030;-79
2022/02/20 07:46:03;;;;;;;7.03;3.37;;;;;;;5.19;51.70;98140.31;2153849;83;20999;-79
2022/02/20 07:49:04;;;;;;;10.60;3.77;;;;;;;5.19;52.17;98145.07;2154096;83;20919;-78
2022/02/20 07:52:05;;;;;;;9.80;4.10;;;;;;;5.32;52.25;98147.53;2153942;83;21058;-78
2022/02/20 07:55:06;;;;;;;7.57;3.50;;;;;;;5.55;52.26;98143.70;2153479;83;20978;-78
2022/02/20 07:58:15;;;;;;;8.53;4.23;;;;;;;5.49;52.40;98143.58;2154182;83;20952;-80
2022/02/20 08:01:15;;;;;;;8.33;3.60;;;;;;;5.33;53.04;98145.40;2153403;81;21386;-79
2022/02/20 08:04:15;;;;;;;11.57;4.17;;;;;;;5.13;53.68;98138.05;2154011;83;20979;-79
2022/02/20 08:07:16;;;;;;;7.57;3.00;;;;;;;5.12;54.26;98153.12;2153881;83;20979;-78
2022/02/20 08:10:16;;;;;;;6.20;3.03;;;;;;;5.15;55.39;98151.02;2153529;83;20991;-78
2022/02/20 08:13:17;;;;;;;6.77;2.97;;;;;;;5.15;56.64;98144.97;2154098;83;21426;-79
2022/02/20 08:16:17;;;;;;;8.17;3.87;;;;;;;5.10;57.90;98154.80;2153426;83;21345;-78
2022/02/20 08:19:18;;;;;;;7.20;3.17;;;;;;;5.02;58.46;98162.81;2153164;83;20943;-79
2022/02/20 08:22:19;;;;;;;6.03;3.00;;;;;;;4.98;58.33;98157.11;2154225;83;22035;-78
2022/02/20 08:25:19;;;;;;;8.37;3.80;;;;;;;5.05;59.38;98161.58;2154461;83;21042;-79
2022/02/20 08:28:20;;;;;;;8.43;3.20;;;;;;;5.08;59.18;98147.42;2154640;83;21014;-79
2022/02/20 08:31:20;;;;;;;6.90;3.50;;;;;;;5.12;60.20;98166.05;2154535;83;20936;-79
2022/02/20 08:34:20;;;;;;;7.10;2.87;;;;;;;5.06;60.80;98174.09;2153428;83;20979;-79
2022/02/20 08:37:21;;;;;;;4.63;2.90;;;;;;;5.03;60.78;98168.85;2154501;83;20972;-79
2022/02/20 08:40:21;;;;;;;10.07;4.00;;;;;;;5.00;61.38;98168.36;2154429;83;20916;-79
2022/02/20 08:43:22;;;;;;;7.73;3.60;;;;;;;4.95;61.82;98169.97;2154061;83;21047;-79
2022/02/20 08:46:23;;;;;;;10.07;5.80;;;;;;;5.05;61.76;98166.75;2154560;83;21291;-79
2022/02/20 08:49:23;;;;;;;8.47;4.10;;;;;;;5.18;62.73;98161.86;2154236;83;21026;-79
2022/02/20 08:52:24;;;;;;;7.60;4.03;;;;;;;5.15;62.55;98170.42;2154523;83;20982;-79
2022/02/20 08:55:24;;;;;;;10.13;3.80;;;;;;;5.07;63.51;98162.48;2154198;83;20952;-79
2022/02/20 08:58:25;;;;;;;6.43;4.57;;;;;;;4.87;65.42;98166.34;2154582;83;20944;-80
2022/02/20 09:01:27;;;;;;;5.27;3.50;;;;;;;4.77;65.02;98176.01;2154462;81;21056;-80
2022/02/20 09:04:28;;;;;;;9.10;3.70;;;;;;;4.76;67.14;98169.96;2154157;83;21031;-80
2022/02/20 09:07:28;;;;;;;8.30;3.87;;;;;;;4.88;66.49;98164.20;2154595;83;20932;-80
2022/02/20 09:10:29;;;;;;;6.73;3.87;;;;;;;4.88;66.33;98166.79;2154698;83;20936;-79
2022/02/20 09:13:30;;;;;;;9.93;4.87;;;;;;;4.91;67.08;98156.52;2153843;83;21071;-79
2022/02/20 09:16:30;;;;;;;8.63;4.50;;;;;;;4.86;67.76;98168.47;2154687;83;21311;-81
2022/02/20 09:19:30;;;;;;;5.53;4.23;;;;;;;4.82;66.92;98163.19;2154906;83;21373;-80
2022/02/20 09:22:31;;;;;;;9.10;5.10;;;;;;;4.76;67.78;98168.67;2154821;83;20904;-81
2022/02/20 09:25:31;;;;;;;8.83;4.70;;;;;;;4.69;67.96;98152.97;2154524;83;21325;-80
2022/02/20 09:28:32;;;;;;;7.23;4.77;;;;;;;4.68;67.93;98178.37;2154431;83;20962;-82
2022/02/20 09:31:32;;;;;;;6.37;4.77;;;;;;;4.71;67.61;98161.64;2154567;83;20908;-80
2022/02/20 09:34:33;;;;;;;7.33;5.53;;;;;;;4.65;68.75;98162.37;2154680;83;20943;-81
2022/02/20 09:37:33;;;;;;;9.83;6.13;;;;;;;4.57;69.56;98160.02;2154273;83;20900;-80
2022/02/20 09:40:34;;;;;;;10.93;5.50;;;;;;;4.44;69.72;98155.38;2154112;83;20904;-79
2022/02/20 09:43:34;;;;;;;8.67;5.53;;;;;;;4.40;70.42;98160.89;2153678;83;21039;-79
2022/02/20 09:46:35;;;;;;;10.00;6.00;;;;;;;4.40;70.12;98159.60;2154134;83;21311;-78
2022/02/20 09:49:35;;;;;;;8.57;4.67;;;;;;;4.50;70.61;98161.12;2154665;83;20935;-78
2022/02/20 09:52:36;;;;;;;6.13;4.73;;;;;;;4.51;71.08;98161.58;2154122;83;20927;-79
2022/02/20 09:55:36;;;;;;;8.37;5.47;;;;;;;4.59;72.40;98162.22;2154391;83;20912;-79
2022/02/20 09:58:37;;;;;;;11.00;5.30;;;;;;;4.78;71.44;98163.11;2154309;83;20924;-79
2022/02/20 10:01:38;;;;;;;10.03;6.00;;;;;;;4.93;71.60;98162.59;2153569;81;21034;-80
2022/02/20 10:04:38;;;;;;;9.53;5.27;;;;;;;5.13;71.31;98163.92;2153181;83;20983;-79
2022/02/20 10:07:39;;;;;;;7.97;5.00;;;;;;;5.30;71.00;98158.27;2152480;83;21030;-79
2022/02/20 10:10:39;;;;;;;8.50;5.17;;;;;;;5.24;71.53;98155.13;2153193;83;20952;-79
2022/02/20 10:13:40;;;;;;;7.00;4.60;;;;;;;5.11;70.83;98150.08;2153843;83;21039;-79
2022/02/20 10:16:40;;;;;;;9.23;5.20;;;;;;;4.97;71.16;98165.70;2153648;83;21386;-79
2022/02/20 10:19:41;;;;;;;8.70;5.87;;;;;;;4.91;71.32;98156.94;2154227;83;21303;-79
2022/02/20 10:22:41;;;;;;;8.17;5.50;;;;;;;4.86;71.32;98165.88;2154205;83;20920;-80
2022/02/20 10:25:42;;;;;;;9.10;6.20;;;;;;;4.85;71.89;98174.89;2154315;83;20994;-80
2022/02/20 10:28:43;;;;;;;8.50;4.83;;;;;;;4.85;72.71;98158.96;2153943;83;21023;-80
2022/02/20 10:31:43;;;;;;;8.13;4.30;;;;;;;4.74;72.89;98170.77;2154261;83;20948;-80
2022/02/20 10:34:44;;;;;;;10.63;5.03;;;;;;;4.73;73.73;98170.30;2154336;83;20943;-81
2022/02/20 10:37:44;;;;;;;12.63;6.30;;;;;;;4.80;73.47;98178.66;2153651;83;20963;-80
2022/02/20 10:40:45;;;;;;;12.83;5.77;;;;;;;4.86;73.25;98174.05;2154168;83;20935;-79
2022/02/20 10:43:47;;;;;;;10.43;5.43;;;;;;;4.99;73.24;98171.79;2153967;83;21074;-80
2022/02/20 10:46:48;;;;;;;6.70;4.00;;;;;;;5.16;73.26;98178.64;2154213;83;21023;-80
2022/02/20 10:49:48;;;;;;;12.20;4.40;;;;;;;5.12;72.77;98163.47;2154240;83;20955;-80
2022/02/20 10:52:49;;;;;;;5.83;4.07;;;;;;;5.11;72.82;98170.77;2154114;83;20991;-80
2022/02/20 10:55:50;;;;;;;7.23;4.20;;;;;;;4.99;73.18;98167.91;2153491;83;21256;-80
2022/02/20 10:58:51;;;;;;;8.30;4.10;;;;;;;4.91;73.35;98167.28;2153115;83;20944;-78
2022/02/20 11:01:51;;;;;;;5.67;3.80;;;;;;;4.84;74.08;98177.02;2165812;82;21003;-81
2022/02/20 11:04:52;;;;;;;6.53;4.07;;;;;;;4.74;73.81;98164.30;2182911;82;20939;-79
2022/02/20 11:07:52;;;;;;;5.80;4.00;;;;;;;4.78;74.30;98167.41;2183853;82;20986;-79
2022/02/20 11:10:53;;;;;;;11.93;5.03;;;;;;;4.85;73.64;98168.02;2183754;82;20935;-79
2022/02/20 11:13:53;;;;;;;11.53;5.27;;;;;;;4.88;73.54;98167.20;2183282;82;21049;-79
2022/02/20 11:16:54;;;;;;;15.57;5.80;;;;;;;4.96;73.67;98166.55;2183471;82;20990;-79
2022/02/20 11:19:55;;;;;;;11.50;4.77;;;;;;;5.12;73.32;98163.47;2183815;82;20978;-79
2022/02/20 11:22:55;;;;;;;4.63;3.73;;;;;;;5.18;72.97;98160.56;2182939;82;21030;-79
2022/02/20 11:25:56;;;;;;;12.00;5.27;;;;;;;5.12;73.08;98165.17;2183023;82;21001;-79
2022/02/20 11:28:57;;;;;;;8.80;4.93;;;;;;;5.18;73.00;98180.84;2183492;82;21354;-79
2022/02/20 11:31:57;;;;;;;5.27;3.40;;;;;;;5.29;72.77;98170.34;2182810;82;21494;-79
2022/02/20 11:34:58;;;;;;;5.47;3.60;;;;;;;5.33;72.60;98168.27;2182779;82;21041;-79
2022/02/20 11:37:59;;;;;;;5.50;3.93;;;;;;;5.46;72.25;98175.88;2183306;82;20930;-80
2022/02/20 11:41:02;;;;;;;9.73;3.97;;;;;;;5.56;71.96;98175.64;2183210;82;20958;-80
2022/02/20 11:44:02;;;;;;;19.80;4.57;;;;;;;5.64;71.70;98174.09;2183132;80;21454;-80
2022/02/20 11:47:02;;;;;;;8.57;4.20;;;;;;;5.69;71.83;98169.88;2182878;82;21011;-78
2022/02/20 11:50:03;;;;;;;9.53;3.90;;;;;;;5.81;71.29;98158.89;2182927;82;20985;-79
2022/02/20 11:53:03;;;;;;;10.97;4.13;;;;;;;5.84;70.95;98175.78;2182224;82;20943;-80
2022/02/20 11:56:04;;;;;;;7.10;4.60;;;;;;;5.76;71.25;98162.26;2182338;82;20946;-80
2022/02/20 11:59:05;;;;;;;9.87;4.20;;;;;;;5.68;70.86;98166.41;2181354;82;21306;-80
2022/02/20 12:02:05;;;;;;;7.30;4.10;;;;;;;5.69;70.96;98168.16;2181187;82;21068;-81
2022/02/20 12:05:06;;;;;;;8.73;4.60;;;;;;;5.84;70.69;98170.60;2181588;82;21013;-81
2022/02/20 12:08:07;;;;;;;7.07;3.87;;;;;;;6.01;70.67;98170.12;2181651;82;20957;-80
2022/02/20 12:11:07;;;;;;;7.80;3.93;;;;;;;6.14;69.83;98180.32;2182352;82;20993;-80
2022/02/20 12:14:08;;;;;;;7.77;3.87;;;;;;;6.09;70.16;98183.25;2182963;82;21069;-80
2022/02/20 12:17:08;;;;;;;9.70;4.57;;;;;;;6.01;71.31;98189.55;2182609;82;20926;-79
2022/02/20 12:20:09;;;;;;;5.07;3.77;;;;;;;5.82;72.29;98180.93;2181456;82;20989;-81
2022/02/20 12:23:09;;;;;;;12.93;5.43;;;;;;;5.65;72.88;98189.66;2181183;82;21025;-80
2022/02/20 12:26:10;;;;;;;7.97;4.63;;;;;;;5.62;73.01;98201.24;2181780;82;20966;-79
2022/02/20 12:29:11;;;;;;;7.07;4.03;;;;;;;5.71;73.82;98197.97;2180557;82;20957;-79
2022/02/20 12:32:12;;;;;;;9.97;3.77;;;;;;;5.89;73.61;98190.99;2180844;82;21061;-79
2022/02/20 12:35:16;;;;;;;16.77;4.80;;;;;;;5.82;73.81;98190.41;2183302;82;20943;-80
2022/02/20 12:38:16;;;;;;;12.82;5.62;;;;;;;5.68;73.68;98192.30;2183656;82;21095;-79
2022/02/20 12:41:17;;;;;;;15.47;5.30;;;;;;;5.63;74.09;98190.05;2183577;82;21334;-80
2022/02/20 12:44:17;;;;;;;6.13;4.03;;;;;;;5.66;74.67;98190.53;2183242;82;21037;-79
2022/02/20 12:47:18;;;;;;;9.23;3.87;;;;;;;5.76;74.73;98195.92;2183947;82;21344;-80
2022/02/20 12:50:18;;;;;;;10.60;4.03;;;;;;;5.91;74.10;98183.73;2184460;82;20973;-79
2022/02/20 12:53:19;;;;;;;9.50;4.00;;;;;;;6.16;73.95;98182.94;2184203;82;20998;-80
2022/02/20 12:56:19;;;;;;;5.97;3.67;;;;;;;6.25;72.77;98181.81;2183285;82;20954;-79
2022/02/20 12:59:20;;;;;;;7.97;4.60;;;;;;;6.33;72.78;98178.52;2183190;82;21018;-79
2022/02/20 13:02:21;;;;;;;10.60;5.13;;;;;;;6.30;72.62;98185.36;2183889;81;20963;-79
2022/02/20 13:05:21;;;;;;;9.27;4.73;;;;;;;6.22;72.93;98187.81;2183571;82;20990;-80
2022/02/20 13:08:24;;;;;;;11.67;5.37;;;;;;;6.29;73.21;98184.91;2183315;82;20973;-80
2022/02/20 13:11:24;;;;;;;12.00;5.90;;;;;;;6.26;73.59;98185.73;2183955;82;21050;-79
2022/02/20 13:14:25;;;;;;;9.27;5.10;;;;;;;6.13;73.87;98191.95;2183773;82;21428;-79
2022/02/20 13:17:26;;;;;;;10.13;6.90;;;;;;;6.04;74.43;98193.91;2182389;82;20989;-78
2022/02/20 13:20:26;;;;;;;12.50;7.80;;;;;;;5.99;74.53;98196.84;2182883;82;20977;-79
2022/02/20 13:23:27;;;;;;;17.43;9.10;;;;;;;6.06;74.90;98193.52;2181469;82;21008;-78
2022/02/20 13:26:28;;;;;;;16.90;6.80;;;;;;;6.07;75.02;98187.53;2181704;82;21000;-79
2022/02/20 13:29:30;;;;;;;12.67;6.73;;;;;;;5.95;74.90;98183.38;2181830;82;20994;-80
2022/02/20 13:32:31;;;;;;;10.53;6.67;;;;;;;5.87;75.21;98186.20;2182635;82;20986;-80
2022/02/20 13:35:31;;;;;;;13.33;7.53;;;;;;;5.84;76.11;98177.08;2183740;82;20910;-81
2022/02/20 13:38:32;;;;;;;19.17;7.97;;;;;;;5.79;75.79;98184.75;2183828;82;20963;-80
2022/02/20 13:41:32;;;;;;;13.00;7.33;;;;;;;5.73;75.79;98181.63;2184054;82;20939;-80
2022/02/20 13:44:37;;;;;;;16.43;7.80;;;;;;;5.69;75.83;98181.53;2182949;82;21031;-80
2022/02/20 13:47:37;;;;;;;27.90;12.80;;;;;;;5.66;75.94;98188.81;2183302;81;21022;-80
2022/02/20 13:50:37;;;;;;;19.20;11.10;;;;;;;5.60;75.77;98190.40;2183874;82;21026;-79
2022/02/20 13:53:38;;;;;;;17.70;11.03;;;;;;;5.58;76.42;98187.78;2183773;82;21344;-81
2022/02/20 13:56:39;;;;;;;16.03;10.03;;;;;;;5.58;76.62;98198.14;2183687;82;21009;-80
2022/02/20 13:59:39;;;;;;;20.93;11.20;;;;;;;5.66;76.62;98191.83;2135582;83;21017;-80
2022/02/20 14:02:40;;;;;;;13.67;7.87;;;;;;;5.72;77.00;98190.23;2116006;83;20970;-81
2022/02/20 14:05:42;;;;;;;17.77;8.10;;;;;;;5.80;77.17;98181.74;2148556;82;21340;-81
2022/02/20 14:08:43;;;;;;;19.10;10.43;;;;;;;5.86;76.44;98176.27;2148586;83;20967;-81
2022/02/20 14:11:43;;;;;;;17.73;9.50;;;;;;;5.94;76.54;98181.20;2148565;83;21003;-82
2022/02/20 14:14:44;;;;;;;17.17;10.10;;;;;;;6.03;76.54;98177.92;2087515;84;21018;-82